Time;durP1;ratioP1;P1;durP2;ratioP2;P2;SDS_P1;SDS_P2;PMS_P1;PMS_P2;Temp;Humidity;BMP_temperature;BMP_pressure;BME280_temperature;BME280_humidity;BME280_pressure;Samples;Min_cycle;Max_cycle;Signal;HPM_P1;HPM_P2
2021/07/31 00:01:11;;;;;;;;;;;19.20;1.00;;;;;;4972316;28;20368;-67
2021/07/31 00:03:37;;;;;;;;;;;19.20;1.00;;;;;;4972551;28;19910;-67
2021/07/31 00:06:03;;;;;;;;;;;19.20;1.00;;;;;;4972338;28;19921;-66
2021/07/31 00:08:29;;;;;;;;;;;19.20;1.00;;;;;;4971665;28;19910;-67
2021/07/31 00:10:55;;;;;;;;;;;19.20;1.00;;;;;;4971877;28;19914;-67
2021/07/31 00:13:21;;;;;;;;;;;19.20;1.00;;;;;;4972481;28;19964;-67
2021/07/31 00:15:46;;;;;;;;;;;19.20;1.00;;;;;;4972261;28;19918;-66
2021/07/31 00:18:12;;;;;;;;;;;19.20;1.00;;;;;;4971398;28;19922;-67
2021/07/31 00:20:38;;;;;;;;;;;19.20;1.00;;;;;;4971919;28;20240;-67
2021/07/31 00:23:04;;;;;;;;;;;19.10;1.00;;;;;;4972492;28;19914;-67
2021/07/31 00:25:29;;;;;;;;;;;19.10;1.00;;;;;;4971900;28;19914;-67
2021/07/31 00:27:55;;;;;;;;;;;19.10;1.00;;;;;;4971674;28;19981;-67
2021/07/31 00:30:25;;;;;;;;;;;19.10;1.00;;;;;;4972197;28;19922;-66
2021/07/31 00:32:51;;;;;;;;;;;19.00;1.00;;;;;;4971985;28;20267;-67
2021/07/31 00:35:16;;;;;;;;;;;18.90;1.00;;;;;;4972123;28;19977;-67
2021/07/31 00:37:42;;;;;;;;;;;18.90;1.00;;;;;;4971285;28;19926;-66
2021/07/31 00:40:08;;;;;;;;;;;18.80;1.00;;;;;;4972039;28;20256;-66
2021/07/31 00:42:33;;;;;;;;;;;18.80;1.00;;;;;;4971951;28;20074;-66
2021/07/31 00:44:59;;;;;;;;;;;18.80;1.00;;;;;;4971865;28;19957;-66
2021/07/31 00:47:24;;;;;;;;;;;18.80;1.00;;;;;;4971292;28;19921;-66
2021/07/31 00:49:50;;;;;;;;;;;18.80;1.00;;;;;;4971780;28;19910;-66
2021/07/31 00:52:15;;;;;;;;;;;18.80;1.00;;;;;;4971907;28;20323;-66
2021/07/31 00:54:41;;;;;;;;;;;18.80;1.00;;;;;;4971996;28;19910;-66
2021/07/31 00:57:07;;;;;;;;;;;18.80;1.00;;;;;;4971427;28;19916;-66
2021/07/31 00:59:32;;;;;;;;;;;18.70;1.00;;;;;;4971437;28;19923;-66
2021/07/31 01:01:57;;;;;;;;;;;18.70;1.00;;;;;;4971680;28;19953;-66
2021/07/31 01:04:23;;;;;;;;;;;18.70;1.00;;;;;;4971834;28;19965;-66
2021/07/31 01:06:49;;;;;;;;;;;18.80;1.00;;;;;;4971718;28;19914;-66
2021/07/31 01:09:14;;;;;;;;;;;18.80;1.00;;;;;;4971164;28;19914;-66
2021/07/31 01:11:40;;;;;;;;;;;18.70;1.00;;;;;;4971328;28;19921;-66
2021/07/31 01:14:05;;;;;;;;;;;18.70;1.00;;;;;;4971844;28;19917;-66
2021/07/31 01:16:31;;;;;;;;;;;18.60;1.00;;;;;;4971594;28;19914;-66
2021/07/31 01:18:56;;;;;;;;;;;18.50;1.00;;;;;;4970593;28;19914;-65
2021/07/31 01:21:37;;;;;;;;;;;18.50;1.00;;;;;;4971564;28;19918;-66
2021/07/31 01:24:03;;;;;;;;;;;18.50;1.00;;;;;;4971714;28;20006;-66
2021/07/31 01:26:28;;;;;;;;;;;18.50;1.00;;;;;;4971222;28;19918;-65
2021/07/31 01:28:54;;;;;;;;;;;18.50;1.00;;;;;;4971992;28;19921;-66
2021/07/31 01:31:19;;;;;;;;;;;18.60;1.00;;;;;;4974886;28;20264;-64
2021/07/31 01:33:45;;;;;;;;;;;18.60;1.00;;;;;;4975463;28;20182;-66
2021/07/31 01:36:10;;;;;;;;;;;18.60;1.00;;;;;;4975259;28;19949;-65
2021/07/31 01:38:36;;;;;;;;;;;18.60;1.00;;;;;;4974509;28;20362;-66
2021/07/31 01:41:02;;;;;;;;;;;18.50;1.00;;;;;;4974699;28;19921;-66
2021/07/31 01:43:27;;;;;;;;;;;18.60;1.00;;;;;;4974684;28;20418;-66
2021/07/31 01:45:53;;;;;;;;;;;18.60;1.00;;;;;;4974964;28;20294;-66
2021/07/31 01:48:18;;;;;;;;;;;18.60;1.00;;;;;;4974357;28;20450;-66
2021/07/31 01:50:44;;;;;;;;;;;18.60;1.00;;;;;;4974731;28;19972;-66
2021/07/31 01:53:10;;;;;;;;;;;18.70;1.00;;;;;;4974870;28;20397;-66
2021/07/31 01:55:36;;;;;;;;;;;18.60;1.00;;;;;;4974452;28;19915;-66
2021/07/31 01:58:01;;;;;;;;;;;18.60;1.00;;;;;;4974098;28;20029;-66
2021/07/31 02:00:27;;;;;;;;;;;18.60;1.00;;;;;;4974544;28;20291;-66
2021/07/31 02:02:52;;;;;;;;;;;18.50;1.00;;;;;;4974776;28;19933;-64
2021/07/31 02:05:18;;;;;;;;;;;18.50;1.00;;;;;;4974564;28;19917;-65
2021/07/31 02:07:43;;;;;;;;;;;18.50;1.00;;;;;;4973988;28;19918;-65
2021/07/31 02:10:09;;;;;;;;;;;18.50;1.00;;;;;;4974613;28;20005;-66
2021/07/31 02:12:34;;;;;;;;;;;18.50;1.00;;;;;;4974140;28;19937;-66
2021/07/31 02:15:00;;;;;;;;;;;18.50;1.00;;;;;;4974673;28;20291;-66
2021/07/31 02:17:25;;;;;;;;;;;18.50;1.00;;;;;;4973574;28;19921;-66
2021/07/31 02:19:51;;;;;;;;;;;18.50;1.00;;;;;;4974460;28;19910;-65
2021/07/31 02:22:16;;;;;;;;;;;18.60;1.00;;;;;;4974382;28;19937;-65
2021/07/31 02:24:42;;;;;;;;;;;18.50;1.00;;;;;;4974740;28;19996;-66
2021/07/31 02:27:07;;;;;;;;;;;18.60;1.00;;;;;;4973990;28;19964;-66
2021/07/31 02:29:32;;;;;;;;;;;18.60;1.00;;;;;;4973629;28;20004;-66
2021/07/31 02:31:58;;;;;;;;;;;18.60;1.00;;;;;;4974200;28;19921;-66
2021/07/31 02:34:24;;;;;;;;;;;18.60;1.00;;;;;;4974709;28;19914;-66
2021/07/31 02:36:49;;;;;;;;;;;18.60;1.00;;;;;;4974236;28;19925;-66
2021/07/31 02:39:15;;;;;;;;;;;18.60;1.00;;;;;;4973186;28;20434;-66
2021/07/31 02:41:40;;;;;;;;;;;18.60;1.00;;;;;;4973415;28;19918;-66
2021/07/31 02:44:05;;;;;;;;;;;18.50;1.00;;;;;;4973882;28;19912;-66
2021/07/31 02:46:31;;;;;;;;;;;18.60;1.00;;;;;;4973770;28;20291;-66
2021/07/31 02:48:57;;;;;;;;;;;18.60;1.00;;;;;;4973412;28;19957;-66
2021/07/31 02:51:22;;;;;;;;;;;18.60;1.00;;;;;;4973921;28;19918;-66
2021/07/31 02:53:48;;;;;;;;;;;18.60;1.00;;;;;;4973694;28;20358;-66
2021/07/31 02:56:13;;;;;;;;;;;18.70;1.00;;;;;;4973428;28;19918;-66
2021/07/31 02:58:39;;;;;;;;;;;18.70;1.00;;;;;;4973005;28;19918;-66
2021/07/31 03:01:05;;;;;;;;;;;18.70;1.00;;;;;;4973583;28;19910;-66
2021/07/31 03:03:30;;;;;;;;;;;18.70;1.00;;;;;;4973867;28;19965;-66
2021/07/31 03:05:57;;;;;;;;;;;18.70;1.00;;;;;;4973386;28;20008;-66
2021/07/31 03:08:22;;;;;;;;;;;18.70;1.00;;;;;;4973335;28;20252;-65
2021/07/31 03:11:07;;;;;;;;;;;18.70;1.00;;;;;;4973447;28;19929;-66
2021/07/31 03:13:32;;;;;;;;;;;18.70;1.00;;;;;;4973395;28;20001;-66
2021/07/31 03:15:58;;;;;;;;;;;18.80;1.00;;;;;;4973242;28;20001;-66
2021/07/31 03:18:24;;;;;;;;;;;18.70;1.00;;;;;;4972799;28;19973;-66
2021/07/31 03:20:50;;;;;;;;;;;18.70;1.00;;;;;;4973287;28;19911;-67
2021/07/31 03:23:16;;;;;;;;;;;18.80;1.00;;;;;;4973299;28;20367;-66
2021/07/31 03:25:42;;;;;;;;;;;18.80;1.00;;;;;;4972940;28;19914;-66
2021/07/31 03:28:08;;;;;;;;;;;18.80;1.00;;;;;;4972119;28;19980;-66
2021/07/31 03:30:38;;;;;;;;;;;18.70;1.00;;;;;;4972881;28;19953;-66
2021/07/31 03:33:03;;;;;;;;;;;18.60;1.00;;;;;;4973115;28;19914;-66
2021/07/31 03:35:29;;;;;;;;;;;18.50;1.00;;;;;;4973103;28;19961;-66
2021/07/31 03:37:54;;;;;;;;;;;18.40;1.00;;;;;;4972653;28;19973;-66
2021/07/31 03:40:20;;;;;;;;;;;18.30;1.00;;;;;;4972963;28;19921;-66
2021/07/31 03:42:45;;;;;;;;;;;18.20;1.00;;;;;;4972398;28;19917;-66
2021/07/31 03:45:11;;;;;;;;;;;18.10;1.00;;;;;;4973123;28;19910;-66
2021/07/31 03:47:36;;;;;;;;;;;18.00;1.00;;;;;;4972245;28;20350;-66
2021/07/31 03:50:02;;;;;;;;;;;18.00;1.00;;;;;;4972499;28;19918;-66
2021/07/31 03:52:27;;;;;;;;;;;18.00;1.00;;;;;;4971876;28;20297;-66
2021/07/31 03:54:53;;;;;;;;;;;17.90;1.00;;;;;;4972897;28;19914;-66
2021/07/31 03:57:18;;;;;;;;;;;17.90;1.00;;;;;;4971702;28;20015;-66
2021/07/31 03:59:44;;;;;;;;;;;17.80;1.00;;;;;;4972531;28;19918;-66
2021/07/31 04:02:09;;;;;;;;;;;17.90;1.00;;;;;;4972383;28;19933;-66
2021/07/31 04:04:35;;;;;;;;;;;17.90;1.00;;;;;;4972613;28;19910;-66
2021/07/31 04:07:00;;;;;;;;;;;18.00;1.00;;;;;;4972390;28;19910;-66
2021/07/31 04:09:26;;;;;;;;;;;18.00;1.00;;;;;;4971998;28;19926;-66
2021/07/31 04:11:52;;;;;;;;;;;18.10;1.00;;;;;;4972019;28;19914;-66
2021/07/31 04:14:17;;;;;;;;;;;18.20;1.00;;;;;;4972167;28;19994;-66
2021/07/31 04:16:43;;;;;;;;;;;18.30;1.00;;;;;;4972355;28;19958;-66
2021/07/31 04:19:08;;;;;;;;;;;18.30;1.00;;;;;;4971770;28;19961;-66
2021/07/31 04:21:34;;;;;;;;;;;18.40;1.00;;;;;;4972223;28;20389;-66
2021/07/31 04:23:59;;;;;;;;;;;18.50;1.00;;;;;;4972306;28;20184;-66
2021/07/31 04:26:25;;;;;;;;;;;18.50;1.00;;;;;;4971409;28;19910;-66
2021/07/31 04:28:50;;;;;;;;;;;18.50;1.00;;;;;;4972187;28;19915;-66
2021/07/31 04:31:16;;;;;;;;;;;18.50;1.00;;;;;;4972095;28;19910;-66
2021/07/31 04:33:42;;;;;;;;;;;18.40;1.00;;;;;;4972423;28;19936;-66
2021/07/31 04:36:08;;;;;;;;;;;18.40;99.90;;;;;;4972272;28;19988;-66
2021/07/31 04:38:34;;;;;;;;;;;18.50;1.00;;;;;;4971103;28;20424;-66
2021/07/31 04:40:59;;;;;;;;;;;18.60;1.00;;;;;;4971457;28;19997;-66
2021/07/31 04:43:25;;;;;;;;;;;18.70;99.90;;;;;;4954585;28;19917;-66
2021/07/31 04:45:51;;;;;;;;;;;18.70;29.00;;;;;;4972039;28;20045;-66
2021/07/31 04:48:16;;;;;;;;;;;18.70;99.90;;;;;;4971285;28;19910;-66
2021/07/31 04:50:42;;;;;;;;;;;18.80;1.00;;;;;;4971716;28;20318;-66
2021/07/31 04:53:07;;;;;;;;;;;18.80;99.90;;;;;;4972077;28;19910;-66
2021/07/31 04:55:33;;;;;;;;;;;18.90;1.00;;;;;;4971303;28;19946;-66
2021/07/31 04:57:58;;;;;;;;;;;18.90;1.00;;;;;;4971253;28;19926;-65
2021/07/31 05:00:24;;;;;;;;;;;19.00;1.00;;;;;;4971814;28;19960;-66
2021/07/31 05:02:49;;;;;;;;;;;19.00;1.00;;;;;;4972533;28;19973;-66
2021/07/31 05:05:15;;;;;;;;;;;19.10;1.00;;;;;;4975810;28;19916;-65
2021/07/31 05:07:41;;;;;;;;;;;19.20;1.00;;;;;;4975117;28;20219;-65
2021/07/31 05:10:07;;;;;;;;;;;19.30;99.90;;;;;;4975416;28;19910;-66
2021/07/31 05:12:33;;;;;;;;;;;19.50;99.90;;;;;;4975308;28;19920;-66
2021/07/31 05:14:59;;;;;;;;;;;20.00;99.90;;;;;;4975459;28;20286;-66
2021/07/31 05:17:24;;;;;;;;;;;20.90;75.40;;;;;;4975099;28;19910;-66
2021/07/31 05:19:50;;;;;;;;;;;22.00;1.00;;;;;;4975362;28;19960;-66
2021/07/31 05:22:15;;;;;;;;;;;22.80;1.00;;;;;;4975464;28;19911;-66
2021/07/31 05:24:42;;;;;;;;;;;23.50;99.90;;;;;;4975086;28;19918;-67
2021/07/31 05:27:07;;;;;;;;;;;23.80;99.90;;;;;;4974733;28;19915;-67
2021/07/31 05:29:33;;;;;;;;;;;23.90;99.90;;;;;;4974898;28;19922;-66
2021/07/31 05:31:59;;;;;;;;;;;24.30;99.90;;;;;;4975251;28;20420;-67
2021/07/31 05:34:25;;;;;;;;;;;25.10;99.90;;;;;;4975630;28;19916;-67
2021/07/31 05:36:50;;;;;;;;;;;26.00;99.90;;;;;;4974829;28;20005;-67
2021/07/31 05:39:16;;;;;;;;;;;26.90;99.90;;;;;;4974342;28;19918;-67
2021/07/31 05:41:41;;;;;;;;;;;27.60;99.90;;;;;;4974625;28;19916;-67
2021/07/31 05:44:07;;;;;;;;;;;28.30;99.90;;;;;;4975122;28;19918;-67
2021/07/31 05:46:32;;;;;;;;;;;28.30;99.90;;;;;;4975033;28;19914;-67
2021/07/31 05:48:58;;;;;;;;;;;27.90;99.90;;;;;;4974098;28;19916;-66
2021/07/31 05:51:23;;;;;;;;;;;28.10;99.90;;;;;;4974724;28;20258;-66
2021/07/31 05:53:49;;;;;;;;;;;28.60;99.90;;;;;;4975040;28;19914;-66
2021/07/31 05:56:15;;;;;;;;;;;29.50;99.90;;;;;;4974377;28;19910;-66
2021/07/31 05:58:40;;;;;;;;;;;30.20;99.90;;;;;;4974170;28;19914;-66
2021/07/31 06:01:06;;;;;;;;;;;30.90;99.90;;;;;;4974837;28;20539;-66
2021/07/31 06:03:33;;;;;;;;;;;31.40;99.90;;;;;;4974606;28;19918;-67
2021/07/31 06:05:58;;;;;;;;;;;32.30;99.90;;;;;;4974927;28;19910;-67
2021/07/31 06:08:24;;;;;;;;;;;32.80;99.90;;;;;;4974080;28;20421;-66
2021/07/31 06:10:50;;;;;;;;;;;33.10;99.90;;;;;;4974410;28;19921;-66
2021/07/31 06:13:15;;;;;;;;;;;33.70;99.90;;;;;;4974573;28;19910;-67
2021/07/31 06:15:43;;;;;;;;;;;34.10;99.90;;;;;;4973655;28;20339;-67
2021/07/31 06:18:12;;;;;;;;;;;34.40;99.90;;;;;;4973840;28;20370;-66
2021/07/31 06:20:38;;;;;;;;;;;35.00;99.90;;;;;;4974270;28;19910;-67
2021/07/31 06:23:03;;;;;;;;;;;35.20;99.90;;;;;;4974285;28;19936;-66
2021/07/31 06:25:29;;;;;;;;;;;35.70;99.90;;;;;;4956607;28;19914;-66
2021/07/31 06:27:55;;;;;;;;;;;36.00;99.90;;;;;;4973825;28;19910;-66
2021/07/31 06:30:20;;;;;;;;;;;36.30;99.90;;;;;;4974321;28;20013;-67
2021/07/31 06:32:49;;;;;;;;;;;36.30;99.90;;;;;;4974183;28;19910;-67
2021/07/31 06:35:15;;;;;;;;;;;37.10;99.90;;;;;;4973900;28;20330;-66
2021/07/31 06:37:41;;;;;;;;;;;37.40;99.90;;;;;;4973208;28;19961;-66
2021/07/31 06:40:07;;;;;;;;;;;37.70;99.90;;;;;;4974054;28;19939;-67
2021/07/31 06:42:32;;;;;;;;;;;38.10;99.90;;;;;;4973727;28;19915;-67
2021/07/31 06:44:58;;;;;;;;;;;38.20;99.90;;;;;;4974109;28;19964;-67
2021/07/31 06:47:23;;;;;;;;;;;38.50;99.90;;;;;;4973049;28;19914;-67
2021/07/31 06:49:49;;;;;;;;;;;38.70;99.90;;;;;;4973905;28;20008;-67
2021/07/31 06:52:15;;;;;;;;;;;38.80;99.90;;;;;;4973343;28;19968;-66
2021/07/31 06:54:40;;;;;;;;;;;39.40;99.90;;;;;;4973801;28;20274;-67
2021/07/31 06:57:09;;;;;;;;;;;39.40;99.90;;;;;;4973158;28;19910;-66
2021/07/31 06:59:35;;;;;;;;;;;39.90;99.90;;;;;;4972667;28;19918;-66
2021/07/31 07:02:00;;;;;;;;;;;39.90;99.90;;;;;;4973611;28;19918;-67
2021/07/31 07:04:26;;;;;;;;;;;40.00;97.10;;;;;;4973490;28;19917;-66
2021/07/31 07:06:51;;;;;;;;;;;38.90;92.90;;;;;;4973407;28;19910;-66
2021/07/31 07:09:17;;;;;;;;;;;37.60;89.00;;;;;;4972579;28;19917;-66
2021/07/31 07:11:43;;;;;;;;;;;37.00;86.80;;;;;;4972620;28;19910;-66
2021/07/31 07:14:09;;;;;;;;;;;37.10;84.90;;;;;;4973438;28;20023;-66
2021/07/31 07:16:34;;;;;;;;;;;37.30;82.50;;;;;;4973400;28;20029;-66
2021/07/31 07:19:00;;;;;;;;;;;37.10;80.30;;;;;;4972601;28;20375;-67
2021/07/31 07:21:25;;;;;;;;;;;37.40;79.10;;;;;;4972953;28;20284;-67
2021/07/31 07:23:51;;;;;;;;;;;37.90;74.80;;;;;;4972033;28;19921;-67
2021/07/31 07:26:16;;;;;;;;;;;38.50;72.30;;;;;;4972999;28;19953;-66
2021/07/31 07:28:42;;;;;;;;;;;38.50;68.30;;;;;;4972488;28;19953;-66
2021/07/31 07:31:11;;;;;;;;;;;39.00;67.20;;;;;;4972899;28;20377;-66
2021/07/31 07:33:37;;;;;;;;;;;39.70;62.30;;;;;;4973447;28;19918;-66
2021/07/31 07:36:10;;;;;;;;;;;39.60;59.00;;;;;;4972545;28;19988;-67
2021/07/31 07:38:35;;;;;;;;;;;39.00;55.60;;;;;;4972298;28;19914;-67
2021/07/31 07:41:01;;;;;;;;;;;37.90;53.10;;;;;;4972863;28;19933;-67
2021/07/31 07:43:27;;;;;;;;;;;36.40;52.30;;;;;;4973069;28;20205;-67
2021/07/31 07:45:52;;;;;;;;;;;35.40;52.00;;;;;;4972538;28;19977;-66
2021/07/31 07:48:18;;;;;;;;;;;34.40;52.10;;;;;;4972011;28;19910;-66
2021/07/31 07:50:43;;;;;;;;;;;34.00;53.90;;;;;;4972381;28;19918;-66
2021/07/31 07:53:09;;;;;;;;;;;33.40;55.20;;;;;;4972923;28;20020;-67
2021/07/31 07:55:34;;;;;;;;;;;33.40;56.90;;;;;;4972088;28;19957;-67
2021/07/31 07:58:00;;;;;;;;;;;34.20;58.70;;;;;;4971869;28;20333;-66
2021/07/31 08:00:25;;;;;;;;;;;34.90;59.80;;;;;;4972415;28;20279;-68
2021/07/31 08:02:51;;;;;;;;;;;35.60;60.60;;;;;;4972715;28;19910;-66
2021/07/31 08:05:16;;;;;;;;;;;36.00;61.00;;;;;;4972352;28;20290;-66
2021/07/31 08:07:43;;;;;;;;;;;35.70;60.20;;;;;;4971825;28;19917;-66
2021/07/31 08:10:10;;;;;;;;;;;35.70;60.00;;;;;;4972213;28;19917;-66
2021/07/31 08:12:35;;;;;;;;;;;36.10;61.10;;;;;;4972060;28;19917;-66
2021/07/31 08:15:00;;;;;;;;;;;36.10;62.60;;;;;;4972394;28;20360;-66
2021/07/31 08:17:26;;;;;;;;;;;37.00;60.30;;;;;;4971569;28;19922;-66
2021/07/31 08:19:51;;;;;;;;;;;37.30;59.30;;;;;;4972085;28;19964;-66
2021/07/31 08:22:17;;;;;;;;;;;37.10;57.60;;;;;;4971059;28;20267;-66
2021/07/31 08:24:42;;;;;;;;;;;37.20;57.00;;;;;;4972456;28;19914;-67
2021/07/31 08:27:08;;;;;;;;;;;36.70;55.20;;;;;;4971538;28;19910;-67
2021/07/31 08:29:33;;;;;;;;;;;35.70;51.90;;;;;;4971857;28;19918;-67
2021/07/31 08:31:59;;;;;;;;;;;35.10;50.20;;;;;;4972040;28;19962;-67
2021/07/31 08:34:24;;;;;;;;;;;34.90;50.00;;;;;;4972180;28;19914;-66
2021/07/31 08:36:50;;;;;;;;;;;34.80;49.10;;;;;;4972049;28;19910;-67
2021/07/31 08:39:15;;;;;;;;;;;34.50;49.80;;;;;;4971211;28;19968;-67
2021/07/31 08:41:41;;;;;;;;;;;34.20;49.50;;;;;;4971512;28;19911;-66
2021/07/31 08:44:06;;;;;;;;;;;34.30;50.30;;;;;;4972037;28;19921;-67
2021/07/31 08:46:34;;;;;;;;;;;34.60;50.60;;;;;;4971754;28;19918;-67
2021/07/31 08:49:00;;;;;;;;;;;35.50;49.50;;;;;;4971249;28;19937;-66
2021/07/31 08:51:28;;;;;;;;;;;36.40;48.90;;;;;;4971645;28;19910;-67
2021/07/31 08:53:54;;;;;;;;;;;36.40;47.40;;;;;;4972289;28;19921;-66
2021/07/31 08:56:19;;;;;;;;;;;36.10;46.00;;;;;;4971542;28;19910;-66
2021/07/31 08:58:45;;;;;;;;;;;35.70;44.70;;;;;;4971212;28;19918;-67
2021/07/31 09:01:10;;;;;;;;;;;36.20;44.40;;;;;;4971731;28;19914;-67
2021/07/31 09:03:43;;;;;;;;;;;38.20;44.30;;;;;;4971750;28;19917;-67
2021/07/31 09:06:23;;;;;;;;;;;40.30;44.60;;;;;;4972014;28;19949;-67
2021/07/31 09:08:53;;;;;;;;;;;42.30;42.10;;;;;;4971592;28;19926;-67
2021/07/31 09:11:18;;;;;;;;;;;44.40;39.70;;;;;;4971744;28;19957;-68
2021/07/31 09:13:44;;;;;;;;;;;44.10;33.60;;;;;;4971916;28;19918;-67
2021/07/31 09:16:11;;;;;;;;;;;42.30;28.00;;;;;;4971731;28;20356;-67
2021/07/31 09:18:43;;;;;;;;;;;40.30;23.50;;;;;;4971037;28;19945;-67
2021/07/31 09:21:11;;;;;;;;;;;39.10;20.90;;;;;;4971936;28;19957;-67
2021/07/31 09:23:44;;;;;;;;;;;37.70;28.50;;;;;;4971640;28;20363;-67
2021/07/31 09:26:10;;;;;;;;;;;36.60;17.40;;;;;;4971269;28;19949;-67
2021/07/31 09:28:40;;;;;;;;;;;36.80;17.90;;;;;;4970849;28;19943;-67
2021/07/31 09:31:06;;;;;;;;;;;38.90;18.90;;;;;;4971752;28;19977;-67
2021/07/31 09:33:31;;;;;;;;;;;40.90;19.00;;;;;;4971564;28;19918;-67
2021/07/31 09:36:01;;;;;;;;;;;42.80;18.30;;;;;;4971516;28;19910;-67
2021/07/31 09:38:39;;;;;;;;;;;44.10;17.00;;;;;;4971124;28;20291;-67
2021/07/31 09:41:20;;;;;;;;;;;45.70;15.60;;;;;;4970673;28;19910;-67
2021/07/31 09:44:02;;;;;;;;;;;46.40;12.70;;;;;;4971761;28;20005;-67
2021/07/31 09:46:33;;;;;;;;;;;46.60;9.20;;;;;;4971735;28;19917;-67
2021/07/31 09:49:00;;;;;;;;;;;46.70;5.80;;;;;;4970711;28;19914;-66
2021/07/31 09:51:36;;;;;;;;;;;45.50;1.20;;;;;;4974511;28;20071;-66
2021/07/31 09:54:02;;;;;;;;;;;43.80;1.00;;;;;;4975476;28;19933;-66
2021/07/31 09:56:29;;;;;;;;;;;41.80;1.00;;;;;;4974500;28;20359;-66
2021/07/31 09:58:57;;;;;;;;;;;40.10;1.00;;;;;;4973980;28;20398;-66
2021/07/31 10:01:23;;;;;;;;;;;40.10;1.00;;;;;;4974751;28;19914;-66
2021/07/31 10:03:50;;;;;;;;;;;39.10;1.00;;;;;;4974916;28;19910;-68
2021/07/31 10:06:16;;;;;;;;;;;38.20;1.00;;;;;;4974607;28;19921;-66
2021/07/31 10:08:42;;;;;;;;;;;37.80;1.00;;;;;;4974094;28;19911;-66
2021/07/31 10:11:08;;;;;;;;;;;37.50;1.00;;;;;;4974173;28;20045;-66
2021/07/31 10:13:34;;;;;;;;;;;36.90;1.00;;;;;;4974728;28;20020;-66
2021/07/31 10:16:00;;;;;;;;;;;36.30;1.00;;;;;;4974515;28;19910;-66
2021/07/31 10:18:27;;;;;;;;;;;35.50;1.00;;;;;;4973843;28;19933;-67
2021/07/31 10:20:53;;;;;;;;;;;35.50;1.00;;;;;;4974263;28;20279;-67
2021/07/31 10:23:54;;;;;;;;;;;36.50;1.00;;;;;;4973685;28;19917;-67
2021/07/31 10:26:20;;;;;;;;;;;37.20;2.60;;;;;;4913761;29;19922;-67
2021/07/31 10:28:45;;;;;;;;;;;37.20;2.90;;;;;;4961868;28;19914;-67
2021/07/31 10:31:30;;;;;;;;;;;36.70;3.90;;;;;;4973932;28;19917;-67
2021/07/31 10:33:56;;;;;;;;;;;37.50;4.90;;;;;;4974357;28;20287;-68
2021/07/31 10:36:28;;;;;;;;;;;38.40;5.70;;;;;;4974295;28;19914;-68
2021/07/31 10:38:53;;;;;;;;;;;37.80;5.30;;;;;;4973456;28;20013;-67
2021/07/31 10:41:38;;;;;;;;;;;37.60;5.70;;;;;;4973285;28;20008;-67
2021/07/31 10:44:10;;;;;;;;;;;36.70;5.60;;;;;;4974116;28;20499;-68
2021/07/31 10:46:35;;;;;;;;;;;35.50;6.00;;;;;;4974038;28;19945;-68
2021/07/31 10:49:20;;;;;;;;;;;34.60;6.80;;;;;;4973351;28;19960;-67
2021/07/31 10:51:45;;;;;;;;;;;33.90;8.40;;;;;;4973777;28;19981;-67
2021/07/31 10:54:11;;;;;;;;;;;33.10;9.60;;;;;;4974092;28;19964;-67
2021/07/31 10:56:51;;;;;;;;;;;33.00;11.70;;;;;;4956126;28;20371;-67
2021/07/31 10:59:16;;;;;;;;;;;33.00;17.80;;;;;;4972827;28;19962;-67
2021/07/31 11:01:42;;;;;;;;;;;33.10;15.10;;;;;;4973210;28;20343;-67
2021/07/31 11:04:08;;;;;;;;;;;33.80;16.30;;;;;;4973650;28;19910;-67
2021/07/31 11:06:52;;;;;;;;;;;35.00;16.70;;;;;;4973638;28;19911;-67
2021/07/31 11:09:17;;;;;;;;;;;35.70;17.20;;;;;;4972820;28;20252;-68
2021/07/31 11:11:43;;;;;;;;;;;36.40;17.60;;;;;;4972893;28;19918;-67
2021/07/31 11:14:09;;;;;;;;;;;37.40;17.50;;;;;;4973514;28;19960;-67
2021/07/31 11:16:34;;;;;;;;;;;38.50;17.80;;;;;;4973327;28;19910;-67
2021/07/31 11:19:02;;;;;;;;;;;38.50;16.70;;;;;;4972595;28;19925;-67
2021/07/31 11:21:27;;;;;;;;;;;37.60;15.60;;;;;;4973225;28;19917;-67
2021/07/31 11:23:54;;;;;;;;;;;37.50;25.10;;;;;;4972368;28;19914;-67
2021/07/31 11:26:34;;;;;;;;;;;37.50;15.10;;;;;;4972906;28;19910;-67
2021/07/31 11:29:00;;;;;;;;;;;37.80;14.80;;;;;;4972591;28;20030;-68
2021/07/31 11:31:25;;;;;;;;;;;38.10;15.30;;;;;;4972808;28;20370;-67
2021/07/31 11:34:01;;;;;;;;;;;37.60;13.70;;;;;;4973250;28;19953;-67
2021/07/31 11:36:27;;;;;;;;;;;37.30;13.80;;;;;;4973123;28;20072;-67
2021/07/31 11:38:53;;;;;;;;;;;36.50;13.50;;;;;;4972312;28;20000;-67
2021/07/31 11:41:18;;;;;;;;;;;35.70;12.50;;;;;;4972494;28;19993;-68
2021/07/31 11:43:54;;;;;;;;;;;35.20;13.80;;;;;;4972786;28;20363;-67
2021/07/31 11:46:30;;;;;;;;;;;34.90;13.10;;;;;;4973342;28;19914;-67
2021/07/31 11:48:56;;;;;;;;;;;34.60;13.40;;;;;;4972315;28;20008;-67
2021/07/31 11:51:22;;;;;;;;;;;34.70;14.90;;;;;;4972646;28;19917;-66
2021/07/31 11:53:49;;;;;;;;;;;34.60;15.00;;;;;;4972525;28;20012;-67
2021/07/31 11:56:19;;;;;;;;;;;34.40;15.20;;;;;;4972341;28;19910;-67
2021/07/31 11:58:45;;;;;;;;;;;34.20;16.50;;;;;;4971740;28;20026;-67
2021/07/31 12:01:11;;;;;;;;;;;34.00;17.20;;;;;;4972727;28;19950;-67
2021/07/31 12:03:53;;;;;;;;;;;34.00;18.60;;;;;;4972723;28;20264;-67
2021/07/31 12:06:35;;;;;;;;;;;33.60;18.30;;;;;;4972710;28;20005;-67
2021/07/31 12:09:02;;;;;;;;;;;33.60;19.60;;;;;;4971898;28;19938;-67
2021/07/31 12:11:35;;;;;;;;;;;33.70;19.90;;;;;;4972154;28;19973;-67
2021/07/31 12:14:01;;;;;;;;;;;33.80;20.60;;;;;;4971730;28;19920;-67
2021/07/31 12:16:27;;;;;;;;;;;34.20;21.60;;;;;;4972257;28;20001;-67
2021/07/31 12:18:52;;;;;;;;;;;34.60;21.90;;;;;;4971963;28;19914;-68
2021/07/31 12:21:25;;;;;;;;;;;34.80;23.60;;;;;;4972260;28;20415;-68
2021/07/31 12:23:50;;;;;;;;;;;34.70;23.20;;;;;;4971980;28;19910;-68
2021/07/31 12:26:26;;;;;;;;;;;34.40;23.00;;;;;;4972632;28;19973;-68
2021/07/31 12:28:55;;;;;;;;;;;34.30;23.30;;;;;;4971695;28;19914;-67
2021/07/31 12:31:25;;;;;;;;;;;33.80;23.20;;;;;;4971853;28;20406;-68
2021/07/31 12:33:52;;;;;;;;;;;33.20;23.90;;;;;;4971920;28;20173;-67
2021/07/31 12:36:17;;;;;;;;;;;32.80;24.30;;;;;;4972341;28;19914;-68
2021/07/31 12:38:43;;;;;;;;;;;32.50;25.50;;;;;;4972114;28;20277;-68
2021/07/31 12:41:08;;;;;;;;;;;32.40;25.90;;;;;;4972202;28;20021;-67
2021/07/31 12:43:34;;;;;;;;;;;32.40;26.20;;;;;;4972382;28;19914;-68
2021/07/31 12:46:00;;;;;;;;;;;32.30;27.20;;;;;;4972271;28;20344;-68
2021/07/31 12:48:26;;;;;;;;;;;32.20;27.90;;;;;;4971628;28;19911;-67
2021/07/31 12:50:51;;;;;;;;;;;32.20;28.30;;;;;;4972021;28;19910;-68
2021/07/31 12:53:18;;;;;;;;;;;32.10;28.50;;;;;;4972004;28;19956;-68
2021/07/31 12:55:44;;;;;;;;;;;32.20;29.00;;;;;;4971596;28;19921;-68
2021/07/31 12:58:10;;;;;;;;;;;32.40;29.80;;;;;;4971308;28;19914;-67
2021/07/31 13:00:36;;;;;;;;;;;32.40;29.20;;;;;;4971607;28;19953;-67
2021/07/31 13:03:01;;;;;;;;;;;32.40;29.40;;;;;;4971806;28;19917;-68
2021/07/31 13:05:27;;;;;;;;;;;32.30;29.20;;;;;;4971773;28;19914;-67
2021/07/31 13:07:53;;;;;;;;;;;32.10;29.00;;;;;;4971615;28;19941;-67
2021/07/31 13:10:20;;;;;;;;;;;31.80;28.90;;;;;;4971894;28;20004;-67
2021/07/31 13:12:45;;;;;;;;;;;31.60;29.10;;;;;;4972520;28;19921;-67
2021/07/31 13:15:11;;;;;;;;;;;31.30;29.20;;;;;;4972169;28;19914;-67
2021/07/31 13:17:36;;;;;;;;;;;30.90;29.20;;;;;;4971512;28;19918;-67
2021/07/31 13:20:02;;;;;;;;;;;30.60;30.30;;;;;;4971964;28;19914;-67
2021/07/31 13:22:28;;;;;;;;;;;30.30;31.10;;;;;;4971689;28;19917;-67
2021/07/31 13:24:57;;;;;;;;;;;30.10;33.20;;;;;;4975027;28;20362;-67
2021/07/31 13:27:23;;;;;;;;;;;30.10;37.90;;;;;;4975131;28;19917;-67
2021/07/31 13:29:48;;;;;;;;;;;29.90;35.10;;;;;;4975222;28;19922;-67
2021/07/31 13:32:14;;;;;;;;;;;29.90;36.30;;;;;;4975216;28;19921;-67
2021/07/31 13:34:39;;;;;;;;;;;29.80;37.20;;;;;;4975506;28;19925;-67
2021/07/31 13:37:06;;;;;;;;;;;29.80;37.50;;;;;;4975294;28;19957;-67
2021/07/31 13:39:42;;;;;;;;;;;29.50;39.00;;;;;;4975016;28;20017;-67
2021/07/31 13:42:08;;;;;;;;;;;29.30;39.40;;;;;;4975110;28;19914;-67
2021/07/31 13:44:34;;;;;;;;;;;29.20;41.70;;;;;;4975134;28;19914;-67
2021/07/31 13:47:00;;;;;;;;;;;29.10;41.90;;;;;;4976022;28;19914;-67
2021/07/31 13:49:25;;;;;;;;;;;29.00;43.00;;;;;;4975086;28;20461;-67
2021/07/31 13:51:51;;;;;;;;;;;28.90;43.50;;;;;;4975150;28;19980;-67
2021/07/31 13:54:16;;;;;;;;;;;29.00;44.30;;;;;;4975540;28;19910;-67
2021/07/31 13:56:42;;;;;;;;;;;29.20;44.60;;;;;;4974827;28;20330;-67
2021/07/31 13:59:08;;;;;;;;;;;29.30;43.70;;;;;;4974855;28;19946;-67
2021/07/31 14:01:34;;;;;;;;;;;29.50;44.60;;;;;;4974396;28;19914;-66
2021/07/31 14:03:59;;;;;;;;;;;29.60;44.80;;;;;;4974739;28;19941;-67
2021/07/31 14:06:25;;;;;;;;;;;29.50;45.30;;;;;;4974554;28;20442;-67
2021/07/31 14:08:51;;;;;;;;;;;29.70;45.60;;;;;;4973997;28;20061;-67
2021/07/31 14:11:16;;;;;;;;;;;29.90;45.50;;;;;;4974175;28;19914;-67
2021/07/31 14:13:42;;;;;;;;;;;29.80;43.90;;;;;;4974589;28;19910;-67
2021/07/31 14:16:08;;;;;;;;;;;29.70;43.60;;;;;;4974524;28;19910;-67
2021/07/31 14:18:33;;;;;;;;;;;29.90;43.40;;;;;;4973957;28;19983;-67
2021/07/31 14:20:59;;;;;;;;;;;30.00;43.60;;;;;;4974119;28;20291;-67